createdAt,value
2017-02-17T00:00:39.809Z,1017.05
2017-02-17T00:01:20.448Z,1017.03
2017-02-17T00:02:01.070Z,1017.04
2017-02-17T00:02:41.707Z,1017.01
2017-02-17T00:03:22.337Z,1017.03
2017-02-17T00:04:02.962Z,1017.08
2017-02-17T00:04:43.619Z,1017.05
2017-02-17T00:05:24.216Z,1017.07
2017-02-17T00:06:04.848Z,1017.04
2017-02-17T00:06:45.490Z,1017.03
2017-02-17T00:07:26.129Z,1017
2017-02-17T00:08:06.757Z,1017
2017-02-17T00:08:47.384Z,1017
2017-02-17T00:09:28.094Z,1017
2017-02-17T00:10:08.721Z,1017.01
2017-02-17T00:10:49.356Z,1017.02
2017-02-17T00:11:29.994Z,1016.98
2017-02-17T00:12:10.627Z,1017
2017-02-17T00:12:51.263Z,1016.98
2017-02-17T00:13:31.888Z,1017
2017-02-17T00:14:12.533Z,1017.04
2017-02-17T00:14:53.163Z,1016.99
2017-02-17T00:15:33.866Z,1017.02
2017-02-17T00:16:14.503Z,1017.01
2017-02-17T00:16:55.152Z,1016.99
2017-02-17T00:17:35.782Z,1017.03
2017-02-17T00:18:16.423Z,1017.06
2017-02-17T00:18:57.065Z,1017.05
2017-02-17T00:19:37.691Z,1017.08
2017-02-17T00:20:18.319Z,1017.07
2017-02-17T00:20:58.946Z,1017.06
2017-02-17T00:21:39.588Z,1017.03
2017-02-17T00:22:20.289Z,1017.1
2017-02-17T00:23:00.921Z,1017.06
2017-02-17T00:23:41.553Z,1017.07
2017-02-17T00:24:22.203Z,1017.11
2017-02-17T00:25:02.836Z,1017.1
2017-02-17T00:25:43.475Z,1017.06
2017-02-17T00:26:24.149Z,1017.09
2017-02-17T00:27:04.774Z,1017.06
2017-02-17T00:27:45.416Z,1017.06
2017-02-17T00:28:26.054Z,1017.05
2017-02-17T00:29:06.680Z,1017.06
2017-02-17T00:29:47.308Z,1017.02
2017-02-17T00:30:27.935Z,1017.07
2017-02-17T00:31:08.557Z,1017.01
2017-02-17T00:31:49.215Z,1017.07
2017-02-17T00:32:29.844Z,1017.01
2017-02-17T00:33:10.463Z,1016.99
2017-02-17T00:33:51.147Z,1017.05
2017-02-17T00:34:31.791Z,1017
2017-02-17T00:35:12.418Z,1017
2017-02-17T00:35:53.110Z,1016.97
2017-02-17T00:36:33.727Z,1016.96
2017-02-17T00:37:14.356Z,1016.97
2017-02-17T00:37:54.981Z,1016.98
2017-02-17T00:38:35.607Z,1016.99
2017-02-17T00:39:16.231Z,1017.02
2017-02-17T00:39:56.936Z,1016.98
2017-02-17T00:40:37.732Z,1016.96
2017-02-17T00:41:18.364Z,1016.94
2017-02-17T00:41:58.989Z,1016.94
2017-02-17T00:42:39.625Z,1016.96
2017-02-17T00:43:20.253Z,1016.92
2017-02-17T00:44:00.897Z,1016.94
2017-02-17T00:44:41.627Z,1016.93
2017-02-17T00:45:22.266Z,1016.92
2017-02-17T00:46:02.888Z,1016.95
2017-02-17T00:46:43.516Z,1016.88
2017-02-17T00:47:24.172Z,1016.9
2017-02-17T00:48:04.795Z,1016.9
2017-02-17T00:48:45.426Z,1016.91
2017-02-17T00:49:26.052Z,1016.87
2017-02-17T00:50:06.679Z,1016.89
2017-02-17T00:50:47.336Z,1016.91
2017-02-17T00:51:27.980Z,1016.91
2017-02-17T00:52:08.608Z,1016.87
2017-02-17T00:52:49.228Z,1016.87
2017-02-17T00:53:29.859Z,1016.89
2017-02-17T00:54:10.540Z,1016.89
2017-02-17T00:54:51.165Z,1016.88
2017-02-17T00:55:31.796Z,1016.9
2017-02-17T00:56:12.427Z,1016.9
2017-02-17T00:56:53.052Z,1016.88
2017-02-17T00:57:33.686Z,1016.86
2017-02-17T00:58:14.342Z,1016.85
2017-02-17T00:58:54.969Z,1016.84
2017-02-17T00:59:35.596Z,1016.82
2017-02-17T01:00:16.276Z,1016.83
2017-02-17T01:00:56.908Z,1016.85
2017-02-17T01:01:37.541Z,1016.83
2017-02-17T01:02:18.190Z,1016.8
2017-02-17T01:02:58.814Z,1016.81
2017-02-17T01:03:39.445Z,1016.79
2017-02-17T01:04:20.130Z,1016.77
2017-02-17T01:05:00.772Z,1016.77
2017-02-17T01:05:41.400Z,1016.77
2017-02-17T01:06:22.035Z,1016.77
2017-02-17T01:07:02.658Z,1016.76
2017-02-17T01:07:43.286Z,1016.72
2017-02-17T01:08:23.920Z,1016.76
2017-02-17T01:09:04.547Z,1016.74
2017-02-17T01:09:45.176Z,1016.76
2017-02-17T01:10:25.807Z,1016.75
2017-02-17T01:11:06.461Z,1016.75
2017-02-17T01:11:47.078Z,1016.75
2017-02-17T01:12:27.708Z,1016.69
2017-02-17T01:13:08.385Z,1016.7
2017-02-17T01:13:49.012Z,1016.69
2017-02-17T01:14:29.639Z,1016.72
2017-02-17T01:15:10.321Z,1016.71
2017-02-17T01:15:50.949Z,1016.75
2017-02-17T01:16:31.581Z,1016.74
2017-02-17T01:17:12.201Z,1016.75
2017-02-17T01:17:52.838Z,1016.71
2017-02-17T01:18:33.465Z,1016.68
2017-02-17T01:19:14.089Z,1016.69
2017-02-17T01:19:54.717Z,1016.69
2017-02-17T01:20:35.384Z,1016.69
2017-02-17T01:21:16.019Z,1016.68
2017-02-17T01:21:56.641Z,1016.68
2017-02-17T01:22:37.309Z,1016.69
2017-02-17T01:23:17.942Z,1016.73
2017-02-17T01:23:58.577Z,1016.64
2017-02-17T01:24:39.241Z,1016.66
2017-02-17T01:25:19.869Z,1016.66
2017-02-17T01:26:00.576Z,1016.64
2017-02-17T01:26:41.198Z,1016.63
2017-02-17T01:27:21.828Z,1016.63
2017-02-17T01:28:02.461Z,1016.63
2017-02-17T01:28:43.084Z,1016.63
2017-02-17T01:29:23.711Z,1016.63
2017-02-17T01:30:04.339Z,1016.57
2017-02-17T01:30:45.032Z,1016.61
2017-02-17T01:31:25.667Z,1016.64
2017-02-17T01:32:06.312Z,1016.62
2017-02-17T01:32:46.982Z,1016.62
2017-02-17T01:33:27.614Z,1016.63
2017-02-17T01:34:08.238Z,1016.63
2017-02-17T01:34:48.978Z,1016.65
2017-02-17T01:35:29.613Z,1016.64
2017-02-17T01:36:10.241Z,1016.68
2017-02-17T01:36:50.919Z,1016.66
2017-02-17T01:37:31.540Z,1016.64
2017-02-17T01:38:12.167Z,1016.69
2017-02-17T01:38:52.859Z,1016.67
2017-02-17T01:39:33.490Z,1016.67
2017-02-17T01:40:14.129Z,1016.64
2017-02-17T01:40:54.789Z,1016.66
2017-02-17T01:41:35.540Z,1016.66
2017-02-17T01:42:16.168Z,1016.69
2017-02-17T01:42:56.803Z,1016.66
2017-02-17T01:43:37.444Z,1016.66
2017-02-17T01:44:18.100Z,1016.72
2017-02-17T01:44:58.738Z,1016.69
2017-02-17T01:45:39.361Z,1016.72
2017-02-17T01:46:20.026Z,1016.76
2017-02-17T01:47:00.682Z,1016.75
2017-02-17T01:47:41.311Z,1016.75
2017-02-17T01:48:21.953Z,1016.72
2017-02-17T01:49:02.616Z,1016.77
2017-02-17T01:49:43.245Z,1016.8
2017-02-17T01:50:23.886Z,1016.75
2017-02-17T01:51:04.512Z,1016.77
2017-02-17T01:51:45.222Z,1016.75
2017-02-17T01:52:25.857Z,1016.79
2017-02-17T01:53:06.485Z,1016.76
2017-02-17T01:53:47.170Z,1016.76
2017-02-17T01:54:27.810Z,1016.78
2017-02-17T01:55:08.442Z,1016.79
2017-02-17T01:55:49.074Z,1016.79
2017-02-17T01:56:29.700Z,1016.76
2017-02-17T01:57:10.334Z,1016.81
2017-02-17T01:57:50.964Z,1016.76
2017-02-17T01:58:31.589Z,1016.78
2017-02-17T01:59:12.218Z,1016.79
2017-02-17T01:59:52.856Z,1016.79
2017-02-17T02:00:33.478Z,1016.81
2017-02-17T02:01:14.116Z,1016.79
2017-02-17T02:01:54.787Z,1016.8
2017-02-17T02:02:35.461Z,1016.79
2017-02-17T02:03:16.089Z,1016.78
2017-02-17T02:03:56.812Z,1016.8
2017-02-17T02:04:37.442Z,1016.83
2017-02-17T02:05:18.071Z,1016.77
2017-02-17T02:05:58.702Z,1016.81
2017-02-17T02:06:39.329Z,1016.81
2017-02-17T02:07:19.953Z,1016.75
2017-02-17T02:08:00.584Z,1016.76
2017-02-17T02:08:41.420Z,1016.76
2017-02-17T02:09:22.040Z,1016.79
2017-02-17T02:10:02.665Z,1016.76
2017-02-17T02:10:43.344Z,1016.74
2017-02-17T02:11:23.975Z,1016.72
2017-02-17T02:12:04.682Z,1016.71
2017-02-17T02:12:45.307Z,1016.72
2017-02-17T02:13:25.991Z,1016.69
2017-02-17T02:14:06.678Z,1016.68
2017-02-17T02:14:47.307Z,1016.69
2017-02-17T02:15:27.949Z,1016.72
2017-02-17T02:16:08.578Z,1016.69
2017-02-17T02:16:49.207Z,1016.67
2017-02-17T02:17:29.922Z,1016.69
2017-02-17T02:18:10.567Z,1016.73
2017-02-17T02:18:51.324Z,1016.7
2017-02-17T02:19:31.968Z,1016.67
2017-02-17T02:20:12.603Z,1016.71
2017-02-17T02:20:53.310Z,1016.66
2017-02-17T02:21:33.968Z,1016.66
2017-02-17T02:22:14.583Z,1016.64
2017-02-17T02:22:55.267Z,1016.64
2017-02-17T02:23:35.908Z,1016.64
2017-02-17T02:24:16.550Z,1016.63
2017-02-17T02:24:57.197Z,1016.61
2017-02-17T02:25:37.816Z,1016.63
2017-02-17T02:26:18.451Z,1016.64
2017-02-17T02:26:59.103Z,1016.62
2017-02-17T02:27:39.768Z,1016.61
2017-02-17T02:28:20.429Z,1016.59
2017-02-17T02:29:01.045Z,1016.64
2017-02-17T02:29:41.678Z,1016.61
2017-02-17T02:30:22.404Z,1016.6
2017-02-17T02:31:02.936Z,1016.57
2017-02-17T02:31:43.565Z,1016.58
2017-02-17T02:32:24.206Z,1016.55
2017-02-17T02:33:04.826Z,1016.58
2017-02-17T02:33:45.481Z,1016.57
2017-02-17T02:34:26.103Z,1016.55
2017-02-17T02:35:06.723Z,1016.57
2017-02-17T02:35:47.406Z,1016.57
2017-02-17T02:36:28.038Z,1016.58
2017-02-17T02:37:08.685Z,1016.55
2017-02-17T02:37:49.338Z,1016.53
2017-02-17T02:38:29.960Z,1016.56
2017-02-17T02:39:10.604Z,1016.56
2017-02-17T02:39:51.301Z,1016.57
2017-02-17T02:40:31.938Z,1016.57
2017-02-17T02:41:12.571Z,1016.57
2017-02-17T02:41:53.281Z,1016.59
2017-02-17T02:42:33.909Z,1016.63
2017-02-17T02:43:14.533Z,1016.65
2017-02-17T02:43:55.227Z,1016.62
2017-02-17T02:44:35.858Z,1016.61
2017-02-17T02:45:16.481Z,1016.64
2017-02-17T02:45:57.165Z,1016.61
2017-02-17T02:46:37.795Z,1016.63
2017-02-17T02:47:18.424Z,1016.6
2017-02-17T02:47:59.057Z,1016.63
2017-02-17T02:48:39.679Z,1016.63
2017-02-17T02:49:20.302Z,1016.61
2017-02-17T02:50:00.930Z,1016.59
2017-02-17T02:50:41.549Z,1016.62
2017-02-17T02:51:22.179Z,1016.62
2017-02-17T02:52:02.886Z,1016.64
2017-02-17T02:52:43.508Z,1016.59
2017-02-17T02:53:24.127Z,1016.68
2017-02-17T02:54:04.757Z,1016.62
2017-02-17T02:54:45.384Z,1016.65
2017-02-17T02:55:26.019Z,1016.64
2017-02-17T02:56:06.654Z,1016.7
2017-02-17T02:56:47.284Z,1016.69
2017-02-17T02:57:28.121Z,1016.62
2017-02-17T02:58:08.751Z,1016.64
2017-02-17T02:58:49.373Z,1016.68
2017-02-17T02:59:29.998Z,1016.65
2017-02-17T03:00:10.624Z,1016.66
2017-02-17T03:00:51.272Z,1016.68
2017-02-17T03:01:31.897Z,1016.68
2017-02-17T03:02:12.534Z,1016.65
2017-02-17T03:02:53.189Z,1016.69
2017-02-17T03:03:33.821Z,1016.68
2017-02-17T03:04:14.506Z,1016.7
2017-02-17T03:04:55.127Z,1016.68
2017-02-17T03:05:35.764Z,1016.66
2017-02-17T03:06:16.396Z,1016.69
2017-02-17T03:06:57.022Z,1016.67
2017-02-17T03:07:37.651Z,1016.67
2017-02-17T03:08:18.275Z,1016.7
2017-02-17T03:08:58.896Z,1016.7
2017-02-17T03:09:39.528Z,1016.66
2017-02-17T03:10:20.171Z,1016.67
2017-02-17T03:11:00.807Z,1016.66
2017-02-17T03:11:41.437Z,1016.66
2017-02-17T03:12:22.161Z,1016.67
2017-02-17T03:13:02.781Z,1016.69
2017-02-17T03:13:43.420Z,1016.69
2017-02-17T03:14:24.062Z,1016.66
2017-02-17T03:15:04.707Z,1016.71
2017-02-17T03:15:45.327Z,1016.72
2017-02-17T03:16:25.979Z,1016.72
2017-02-17T03:17:06.602Z,1016.72
2017-02-17T03:17:47.226Z,1016.69
2017-02-17T03:18:27.861Z,1016.73
2017-02-17T03:19:08.487Z,1016.73
2017-02-17T03:19:49.123Z,1016.7
2017-02-17T03:20:29.745Z,1016.7
2017-02-17T03:21:10.397Z,1016.68
2017-02-17T03:21:51.025Z,1016.7
2017-02-17T03:22:31.656Z,1016.68
2017-02-17T03:23:12.288Z,1016.68
2017-02-17T03:23:52.994Z,1016.7
2017-02-17T03:24:33.619Z,1016.66
2017-02-17T03:25:14.255Z,1016.69
2017-02-17T03:25:54.868Z,1016.74
2017-02-17T03:26:35.498Z,1016.68
2017-02-17T03:27:16.130Z,1016.67
2017-02-17T03:27:56.765Z,1016.68
2017-02-17T03:28:37.450Z,1016.65
2017-02-17T03:29:18.081Z,1016.65
2017-02-17T03:29:58.707Z,1016.61
2017-02-17T03:30:39.439Z,1016.65
2017-02-17T03:31:20.071Z,1016.59
2017-02-17T03:32:00.695Z,1016.58
2017-02-17T03:32:41.366Z,1016.62
2017-02-17T03:33:21.997Z,1016.6
2017-02-17T03:34:02.626Z,1016.61
2017-02-17T03:34:43.341Z,1016.58
2017-02-17T03:35:23.963Z,1016.61
2017-02-17T03:36:04.592Z,1016.63
2017-02-17T03:36:45.247Z,1016.58
2017-02-17T03:37:25.882Z,1016.56
2017-02-17T03:38:06.516Z,1016.58
2017-02-17T03:38:47.161Z,1016.6
2017-02-17T03:39:27.780Z,1016.54
2017-02-17T03:40:08.406Z,1016.59
2017-02-17T03:40:49.102Z,1016.56
2017-02-17T03:41:29.731Z,1016.6
2017-02-17T03:42:10.359Z,1016.54
2017-02-17T03:42:51.024Z,1016.56
2017-02-17T03:43:31.654Z,1016.61
2017-02-17T03:44:12.285Z,1016.5
2017-02-17T03:44:52.929Z,1016.5
2017-02-17T03:45:33.554Z,1016.55
2017-02-17T03:46:14.186Z,1016.48
2017-02-17T03:46:54.825Z,1016.49
2017-02-17T03:47:35.448Z,1016.5
2017-02-17T03:48:16.073Z,1016.46
2017-02-17T03:48:56.701Z,1016.46
2017-02-17T03:49:37.332Z,1016.45
2017-02-17T03:50:17.962Z,1016.45
2017-02-17T03:50:58.604Z,1016.43
2017-02-17T03:51:39.224Z,1016.43
2017-02-17T03:52:19.906Z,1016.4
2017-02-17T03:53:00.541Z,1016.47
2017-02-17T03:53:41.156Z,1016.45
2017-02-17T03:54:21.816Z,1016.43
2017-02-17T03:55:02.446Z,1016.39
2017-02-17T03:55:43.071Z,1016.36
2017-02-17T03:56:23.741Z,1016.37
2017-02-17T03:57:04.370Z,1016.37
2017-02-17T03:57:45.183Z,1016.36
2017-02-17T03:58:25.825Z,1016.36
2017-02-17T03:59:06.477Z,1016.32
2017-02-17T03:59:47.104Z,1016.35
2017-02-17T04:00:27.731Z,1016.34
2017-02-17T04:01:08.356Z,1016.29
2017-02-17T04:01:49.053Z,1016.28
2017-02-17T04:02:29.749Z,1016.32
2017-02-17T04:03:10.451Z,1016.32
2017-02-17T04:03:51.154Z,1016.31
2017-02-17T04:04:31.781Z,1016.33
2017-02-17T04:05:12.414Z,1016.32
2017-02-17T04:05:53.044Z,1016.29
2017-02-17T04:06:33.673Z,1016.33
2017-02-17T04:07:16.720Z,1016.29
2017-02-17T04:07:57.354Z,1016.31
2017-02-17T04:08:37.980Z,1016.34
2017-02-17T04:09:18.608Z,1016.34
2017-02-17T04:09:59.223Z,1016.39
2017-02-17T04:10:39.940Z,1016.32
2017-02-17T04:11:20.561Z,1016.34
2017-02-17T04:12:01.189Z,1016.33
2017-02-17T04:12:41.893Z,1016.29
2017-02-17T04:13:22.520Z,1016.34
2017-02-17T04:14:03.155Z,1016.35
2017-02-17T04:14:43.826Z,1016.34
2017-02-17T04:15:24.456Z,1016.3
2017-02-17T04:16:05.083Z,1016.37
2017-02-17T04:16:45.828Z,1016.32
2017-02-17T04:17:26.584Z,1016.36
2017-02-17T04:18:07.224Z,1016.36
2017-02-17T04:18:47.851Z,1016.36
2017-02-17T04:19:29.458Z,1016.35
2017-02-17T04:20:10.087Z,1016.35
2017-02-17T04:20:50.717Z,1016.4
2017-02-17T04:21:31.342Z,1016.38
2017-02-17T04:22:11.993Z,1016.36
2017-02-17T04:22:52.644Z,1016.38
2017-02-17T04:23:33.285Z,1016.35
2017-02-17T04:24:13.920Z,1016.32
2017-02-17T04:24:54.546Z,1016.32
2017-02-17T04:25:35.171Z,1016.32
2017-02-17T04:26:15.792Z,1016.32
2017-02-17T04:26:56.504Z,1016.38
2017-02-17T04:27:37.127Z,1016.33
2017-02-17T04:28:17.760Z,1016.32
2017-02-17T04:28:58.465Z,1016.4
2017-02-17T04:29:39.097Z,1016.34
2017-02-17T04:30:19.729Z,1016.37
2017-02-17T04:31:00.399Z,1016.38
2017-02-17T04:31:41.065Z,1016.41
2017-02-17T04:32:21.696Z,1016.43
2017-02-17T04:33:02.371Z,1016.39
2017-02-17T04:33:42.998Z,1016.41
2017-02-17T04:34:23.699Z,1016.4
2017-02-17T04:35:04.285Z,1016.42
2017-02-17T04:35:44.929Z,1016.45
2017-02-17T04:36:25.572Z,1016.38
2017-02-17T04:37:06.349Z,1016.41
2017-02-17T04:37:47.036Z,1016.43
2017-02-17T04:38:27.671Z,1016.42
2017-02-17T04:39:08.294Z,1016.39
2017-02-17T04:39:48.951Z,1016.4
2017-02-17T04:40:29.605Z,1016.42
2017-02-17T04:41:10.248Z,1016.43
2017-02-17T04:41:50.882Z,1016.42
2017-02-17T04:42:31.580Z,1016.4
2017-02-17T04:43:12.219Z,1016.38
2017-02-17T04:43:52.857Z,1016.43
2017-02-17T04:44:33.490Z,1016.42
2017-02-17T04:45:14.120Z,1016.45
2017-02-17T04:45:54.774Z,1016.41
2017-02-17T04:46:35.402Z,1016.36
2017-02-17T04:47:16.026Z,1016.44
2017-02-17T04:47:56.693Z,1016.42
2017-02-17T04:48:37.331Z,1016.43
2017-02-17T04:49:17.959Z,1016.45
2017-02-17T04:49:58.667Z,1016.43
2017-02-17T04:50:39.287Z,1016.41
2017-02-17T04:51:19.908Z,1016.38
2017-02-17T04:52:00.557Z,1016.41
2017-02-17T04:52:41.188Z,1016.41
2017-02-17T04:53:21.822Z,1016.38
2017-02-17T04:54:02.487Z,1016.43
2017-02-17T04:54:43.111Z,1016.38
2017-02-17T04:55:23.733Z,1016.41
2017-02-17T04:56:04.421Z,1016.4
2017-02-17T04:56:45.045Z,1016.38
2017-02-17T04:57:25.685Z,1016.39
2017-02-17T04:58:06.406Z,1016.42
2017-02-17T04:58:47.079Z,1016.41
2017-02-17T04:59:27.741Z,1016.42
2017-02-17T05:00:08.403Z,1016.41
2017-02-17T05:00:49.036Z,1016.4
2017-02-17T05:01:29.779Z,1016.43
2017-02-17T05:02:10.436Z,1016.42
2017-02-17T05:02:51.063Z,1016.45
2017-02-17T05:03:31.784Z,1016.45
2017-02-17T05:04:12.423Z,1016.46
2017-02-17T05:04:53.145Z,1016.48
2017-02-17T05:05:33.777Z,1016.43
2017-02-17T05:06:14.408Z,1016.44
2017-02-17T05:06:55.034Z,1016.43
2017-02-17T05:07:35.667Z,1016.42
2017-02-17T05:08:16.290Z,1016.41
2017-02-17T05:08:56.935Z,1016.41
2017-02-17T05:09:37.591Z,1016.4
2017-02-17T05:10:18.215Z,1016.33
2017-02-17T05:10:58.839Z,1016.37
2017-02-17T05:11:39.471Z,1016.4
2017-02-17T05:12:20.100Z,1016.33
2017-02-17T05:13:00.727Z,1016.31
2017-02-17T05:13:41.420Z,1016.31
2017-02-17T05:14:22.049Z,1016.34
2017-02-17T05:15:02.815Z,1016.32
2017-02-17T05:15:43.458Z,1016.31
2017-02-17T05:16:24.093Z,1016.3
2017-02-17T05:17:04.723Z,1016.33
2017-02-17T05:17:45.376Z,1016.33
2017-02-17T05:18:26.001Z,1016.35
2017-02-17T05:19:06.625Z,1016.28
2017-02-17T05:19:47.310Z,1016.33
2017-02-17T05:20:27.935Z,1016.31
2017-02-17T05:21:08.577Z,1016.35
2017-02-17T05:21:49.300Z,1016.36
2017-02-17T05:22:29.923Z,1016.36
2017-02-17T05:23:10.550Z,1016.38
2017-02-17T05:23:51.200Z,1016.4
2017-02-17T05:24:31.824Z,1016.4
2017-02-17T05:25:12.450Z,1016.36
2017-02-17T05:25:53.085Z,1016.4
2017-02-17T05:26:33.717Z,1016.38
2017-02-17T05:27:14.357Z,1016.4
2017-02-17T05:27:55.014Z,1016.38
2017-02-17T05:28:35.643Z,1016.38
2017-02-17T05:29:16.281Z,1016.37
2017-02-17T05:29:56.921Z,1016.34
2017-02-17T05:30:37.549Z,1016.34
2017-02-17T05:31:18.172Z,1016.33
2017-02-17T05:31:58.810Z,1016.34
2017-02-17T05:32:39.438Z,1016.36
2017-02-17T05:33:20.111Z,1016.33
2017-02-17T05:34:00.751Z,1016.35
2017-02-17T05:34:41.371Z,1016.34
2017-02-17T05:35:22.090Z,1016.33
2017-02-17T05:36:02.818Z,1016.31
2017-02-17T05:36:43.464Z,1016.34
2017-02-17T05:37:24.114Z,1016.36
2017-02-17T05:38:04.748Z,1016.33
2017-02-17T05:38:45.374Z,1016.35
2017-02-17T05:39:26.003Z,1016.31
2017-02-17T05:40:06.636Z,1016.32
2017-02-17T05:40:47.352Z,1016.35
2017-02-17T05:41:27.990Z,1016.32
2017-02-17T05:42:08.776Z,1016.32
2017-02-17T05:42:49.406Z,1016.33
2017-02-17T05:43:30.102Z,1016.31
2017-02-17T05:44:10.658Z,1016.31
2017-02-17T05:44:51.291Z,1016.3
2017-02-17T05:45:31.923Z,1016.29
2017-02-17T05:46:12.556Z,1016.31
2017-02-17T05:46:53.226Z,1016.32
2017-02-17T05:47:33.968Z,1016.34
2017-02-17T05:48:14.498Z,1016.34
2017-02-17T05:48:55.164Z,1016.36
2017-02-17T05:49:35.792Z,1016.37
2017-02-17T05:50:16.431Z,1016.34
2017-02-17T05:50:57.145Z,1016.35
2017-02-17T05:51:37.773Z,1016.35
2017-02-17T05:52:18.415Z,1016.32
2017-02-17T05:52:59.103Z,1016.32
2017-02-17T05:53:39.745Z,1016.33
2017-02-17T05:54:20.373Z,1016.33
2017-02-17T05:55:01.065Z,1016.33
2017-02-17T05:55:41.728Z,1016.35
2017-02-17T05:56:22.370Z,1016.33
2017-02-17T05:57:03.006Z,1016.4
2017-02-17T05:57:43.844Z,1016.37
2017-02-17T05:58:24.469Z,1016.35
2017-02-17T05:59:05.096Z,1016.38
2017-02-17T05:59:45.735Z,1016.41
2017-02-17T06:00:26.359Z,1016.4
2017-02-17T06:01:06.991Z,1016.38
2017-02-17T06:01:47.644Z,1016.39
2017-02-17T06:02:28.273Z,1016.37
2017-02-17T06:03:08.999Z,1016.37
2017-02-17T06:03:49.687Z,1016.41
2017-02-17T06:04:30.307Z,1016.37
2017-02-17T06:05:10.926Z,1016.38
2017-02-17T06:05:51.556Z,1016.4
2017-02-17T06:06:32.183Z,1016.41
2017-02-17T06:07:12.817Z,1016.44
2017-02-17T06:07:53.446Z,1016.41
2017-02-17T06:08:34.074Z,1016.43
2017-02-17T06:09:14.728Z,1016.4
2017-02-17T06:09:55.352Z,1016.41
2017-02-17T06:10:35.981Z,1016.4
2017-02-17T06:11:16.650Z,1016.39
2017-02-17T06:11:57.280Z,1016.39
2017-02-17T06:12:37.901Z,1016.42
2017-02-17T06:13:18.581Z,1016.41
2017-02-17T06:13:59.219Z,1016.43
2017-02-17T06:14:39.888Z,1016.43
2017-02-17T06:15:20.546Z,1016.39
2017-02-17T06:16:01.177Z,1016.43
2017-02-17T06:16:41.798Z,1016.42
2017-02-17T06:17:22.421Z,1016.44
2017-02-17T06:18:03.068Z,1016.43
2017-02-17T06:18:43.715Z,1016.42
2017-02-17T06:19:24.354Z,1016.38
2017-02-17T06:20:04.996Z,1016.4
2017-02-17T06:20:45.637Z,1016.33
2017-02-17T06:21:26.321Z,1016.33
2017-02-17T06:22:06.948Z,1016.37
2017-02-17T06:22:47.637Z,1016.36
2017-02-17T06:23:28.212Z,1016.35
2017-02-17T06:24:08.845Z,1016.33
2017-02-17T06:24:49.549Z,1016.34
2017-02-17T06:25:30.173Z,1016.33
2017-02-17T06:26:10.904Z,1016.28
2017-02-17T06:26:51.535Z,1016.31
2017-02-17T06:27:32.158Z,1016.32
2017-02-17T06:28:12.782Z,1016.31
2017-02-17T06:28:53.417Z,1016.32
2017-02-17T06:29:34.136Z,1016.32
2017-02-17T06:30:14.772Z,1016.31
2017-02-17T06:30:55.412Z,1016.31
2017-02-17T06:31:36.026Z,1016.35
2017-02-17T06:32:16.656Z,1016.33
2017-02-17T06:32:57.284Z,1016.33
2017-02-17T06:33:37.919Z,1016.34
2017-02-17T06:34:18.545Z,1016.33
2017-02-17T06:34:59.169Z,1016.33
2017-02-17T06:35:39.796Z,1016.33
2017-02-17T06:36:20.417Z,1016.36
2017-02-17T06:37:01.051Z,1016.33
2017-02-17T06:37:41.684Z,1016.37
2017-02-17T06:38:22.322Z,1016.33
2017-02-17T06:39:02.954Z,1016.33
2017-02-17T06:39:43.578Z,1016.26
2017-02-17T06:40:24.201Z,1016.32
2017-02-17T06:41:04.977Z,1016.34
2017-02-17T06:41:45.615Z,1016.32
2017-02-17T06:42:26.245Z,1016.32
2017-02-17T06:43:06.867Z,1016.32
2017-02-17T06:43:47.489Z,1016.32
2017-02-17T06:44:28.111Z,1016.34
2017-02-17T06:45:08.795Z,1016.38
2017-02-17T06:45:49.464Z,1016.38
2017-02-17T06:46:30.088Z,1016.38
2017-02-17T06:47:10.824Z,1016.37
2017-02-17T06:47:51.445Z,1016.37
2017-02-17T06:48:32.072Z,1016.38
2017-02-17T06:49:12.711Z,1016.38
2017-02-17T06:49:53.335Z,1016.39
2017-02-17T06:50:33.973Z,1016.39
2017-02-17T06:51:14.608Z,1016.42
2017-02-17T06:51:55.227Z,1016.38
2017-02-17T06:52:35.885Z,1016.41
2017-02-17T06:53:16.513Z,1016.41
2017-02-17T06:53:57.142Z,1016.4
2017-02-17T06:54:37.811Z,1016.4
2017-02-17T06:55:18.439Z,1016.41
2017-02-17T06:55:59.075Z,1016.44
2017-02-17T06:56:39.737Z,1016.44
2017-02-17T06:57:20.367Z,1016.43
2017-02-17T06:58:00.994Z,1016.46
2017-02-17T06:58:41.621Z,1016.44
2017-02-17T06:59:22.254Z,1016.45
2017-02-17T07:00:02.879Z,1016.46
2017-02-17T07:00:43.589Z,1016.46
2017-02-17T07:01:24.213Z,1016.46
2017-02-17T07:02:04.839Z,1016.47
2017-02-17T07:02:45.693Z,1016.47
2017-02-17T07:03:26.317Z,1016.49
2017-02-17T07:04:06.949Z,1016.5
2017-02-17T07:04:47.589Z,1016.49
2017-02-17T07:05:28.215Z,1016.49
2017-02-17T07:06:08.835Z,1016.51
2017-02-17T07:06:49.465Z,1016.48
2017-02-17T07:07:30.183Z,1016.51
2017-02-17T07:08:10.813Z,1016.48
2017-02-17T07:08:51.520Z,1016.47
2017-02-17T07:09:32.222Z,1016.48
2017-02-17T07:10:12.851Z,1016.48
2017-02-17T07:10:53.475Z,1016.47
2017-02-17T07:11:34.158Z,1016.46
2017-02-17T07:12:14.788Z,1016.46
2017-02-17T07:12:55.412Z,1016.51
2017-02-17T07:13:36.244Z,1016.53
2017-02-17T07:14:16.892Z,1016.52
2017-02-17T07:14:57.517Z,1016.57
2017-02-17T07:15:38.148Z,1016.55
2017-02-17T07:16:18.793Z,1016.55
2017-02-17T07:16:59.423Z,1016.54
2017-02-17T07:17:40.053Z,1016.58
2017-02-17T07:18:20.762Z,1016.56
2017-02-17T07:19:01.406Z,1016.57
2017-02-17T07:19:42.042Z,1016.56
2017-02-17T07:20:22.668Z,1016.59
2017-02-17T07:21:03.293Z,1016.57
2017-02-17T07:21:43.923Z,1016.62
2017-02-17T07:22:24.560Z,1016.59
2017-02-17T07:23:05.187Z,1016.6
2017-02-17T07:23:45.821Z,1016.58
2017-02-17T07:24:26.457Z,1016.59
2017-02-17T07:25:07.153Z,1016.59
2017-02-17T07:25:47.872Z,1016.59
2017-02-17T07:26:28.498Z,1016.64
2017-02-17T07:27:09.133Z,1016.61
2017-02-17T07:27:49.777Z,1016.59
2017-02-17T07:28:30.418Z,1016.6
2017-02-17T07:29:11.111Z,1016.61
2017-02-17T07:29:51.691Z,1016.63
2017-02-17T07:30:32.320Z,1016.67
2017-02-17T07:31:12.962Z,1016.66
2017-02-17T07:31:53.666Z,1016.65
2017-02-17T07:32:34.296Z,1016.65
2017-02-17T07:33:14.915Z,1016.66
2017-02-17T07:33:55.624Z,1016.67
2017-02-17T07:34:36.253Z,1016.68
2017-02-17T07:35:16.891Z,1016.7
2017-02-17T07:35:57.531Z,1016.71
2017-02-17T07:36:38.149Z,1016.7
2017-02-17T07:37:18.774Z,1016.73
2017-02-17T07:37:59.457Z,1016.74
2017-02-17T07:38:40.089Z,1016.77
2017-02-17T07:39:20.739Z,1016.77
2017-02-17T07:40:01.406Z,1016.75
2017-02-17T07:40:42.009Z,1016.79
2017-02-17T07:41:22.648Z,1016.78
2017-02-17T07:42:03.266Z,1016.82
2017-02-17T07:42:43.957Z,1016.82
2017-02-17T07:43:24.587Z,1016.78
2017-02-17T07:44:05.225Z,1016.82
2017-02-17T07:44:45.960Z,1016.83
2017-02-17T07:45:26.579Z,1016.79
2017-02-17T07:46:07.201Z,1016.79
2017-02-17T07:46:47.909Z,1016.83
2017-02-17T07:47:28.541Z,1016.8
2017-02-17T07:48:09.161Z,1016.77
2017-02-17T07:48:49.798Z,1016.81
2017-02-17T07:49:30.432Z,1016.78
2017-02-17T07:50:11.062Z,1016.8
2017-02-17T07:50:51.702Z,1016.83
2017-02-17T07:51:32.340Z,1016.81
2017-02-17T07:52:13.893Z,1016.82
2017-02-17T07:52:54.578Z,1016.81
2017-02-17T07:53:35.207Z,1016.82
2017-02-17T07:54:15.846Z,1016.88
2017-02-17T07:54:56.557Z,1016.84
2017-02-17T07:55:37.190Z,1016.89
2017-02-17T07:56:17.813Z,1016.92
2017-02-17T07:56:58.451Z,1016.88
2017-02-17T07:57:39.083Z,1016.95
2017-02-17T07:58:19.721Z,1016.91
2017-02-17T07:59:00.416Z,1016.97
2017-02-17T07:59:41.041Z,1016.96
2017-02-17T08:00:21.668Z,1016.88
2017-02-17T08:01:02.308Z,1017.01
2017-02-17T08:01:42.928Z,1017.01
2017-02-17T08:02:23.555Z,1017.02
2017-02-17T08:03:04.218Z,1017.01
2017-02-17T08:03:44.849Z,1017.01
2017-02-17T08:04:25.487Z,1017.03
2017-02-17T08:05:06.106Z,1017.04
2017-02-17T08:05:46.741Z,1017.04
2017-02-17T08:06:27.360Z,1017.07
2017-02-17T08:07:07.996Z,1017.06
2017-02-17T08:07:48.630Z,1017.03
2017-02-17T08:08:29.269Z,1017.07
2017-02-17T08:09:09.908Z,1017.09
2017-02-17T08:09:50.535Z,1017.1
2017-02-17T08:10:31.163Z,1017.11
2017-02-17T08:11:11.798Z,1017.08
2017-02-17T08:11:52.423Z,1017.07
2017-02-17T08:12:33.073Z,1017.1
2017-02-17T08:13:13.801Z,1017.08
2017-02-17T08:13:54.426Z,1017.11